Dunmow, United Kingdom
Current Conditions -  °F | °C
As of 6:20 PM on Sunday 25 Jan 2015 (Local Time) from EGSS Reporting Station
Broken Clouds Broken Clouds  
Wind Chill: 38°   Ceiling: 1400
Heat Index: 43°   Visibility: 6mi
Dew Point: 39°   Wind: 8mph
Humidity: 87%   Direction: 230°SW
Pressure: 30.3"   Gusts: NA
Location:  51.87°N, 0.36°E
Report Text: EGSS 251820Z 23007KT 9999 BKN014 06/04 Q1026
Loading
Personal Weather Stations






























Interactive Weather Map New forecast layout! Learn more

10-Day Weather Forecast

Advertisements
Track Severe Weather on mobile